Atwood, California
Current Conditions -  °F | °C
As of 3:53 PM on Monday 20 Oct 2014 (Local Time) from KFUL Reporting Station
Clear Clear  
Wind Chill: 25°   Ceiling: Unl
Heat Index: 26°   Visibility: 10mi
Dew Point: 16°   Wind: 8mph
Humidity: 58%   Direction: 210°SSW
Pressure: 29.86"   Gusts: NA
Location:  33.87°N, 117.83°W
Report Text: KFUL 202253Z 21007KT 10SM CLR 25/16 A2986 RMK AO2 SLP110 T02500161
Loading
Personal Weather Stations






























Interactive Weather Map
Tropical Storm Tracking
New forecast layout! Learn more

10-Day Weather Forecast

Advertisements
Track Severe Weather on mobile